マプト の空港の天気 - METARとTAF

マプト国際空港 ( FQMA / MPM ) - モザンビーク マプト
飛行場実況気象(Metar)
観測時間03/06 16:00 CAT (03/06 14:00 UTC)
風向・風速南東 5m/s
視程10km以上
天気現象
少しの雲 雲底高度 610m
全天の4割程度の雲 雲底高度 910m
気温29℃
湿度62%
気圧1013hPa
METARFQMA 061400Z 14010KT 9999 FEW020 SCT030 29/21 Q1013 NOSIG
過去の天気等 Google飛行場航空写真 Wunderground天気予報

過去48時間のMETAR

飛行場予報(TAF)
発表時間: 3/06 12:00 CAT (3/06 10:00 UTC)
予報対象時間: 6日14時 CAT ~ 7日20時 CAT
風向・風速南 6m/s
視程10km以上
全天の8割程度の雲 雲底高度 610m
6日21時 CAT ~ 6日23時 CAT に徐々に
風向・風速南西 3m/s
7日2時 CAT ~ 7日4時 CAT に徐々に
風向・風速不定 2m/s
少しの雲 雲底高度 610m
7日8時 CAT ~ 7日10時 CAT に徐々に
風向・風速北 4m/s
全天の4割程度の雲 雲底高度 610m
7日14時 CAT ~ 7日16時 CAT に徐々に
風向・風速東 5m/s
TAF FQMA 061000Z 0612/0718 19012KT 9999 BKN020 TX31/0613Z TN22/0704Z
BECMG 0619/0621 23006KT
BECMG 0700/0702 VRB04KT FEW020
BECMG 0706/0708 35008KT SCT020
BECMG 0712/0714 09010KT